sensor_id;sensor_type;location;lat;lon;timestamp;pressure;altitude;pressure_sealevel;temperature;humidity
75942;BME280;64622;46.220;19.878;2023-02-28T00:01:29;101564.38;;;0.67;80.13
75942;BME280;64622;46.220;19.878;2023-02-28T00:03:56;101558.53;;;0.61;80.22
75942;BME280;64622;46.220;19.878;2023-02-28T00:06:24;101577.69;;;0.64;80.18
75942;BME280;64622;46.220;19.878;2023-02-28T00:08:51;101571.16;;;0.73;80.97
75942;BME280;64622;46.220;19.878;2023-02-28T00:11:18;101565.56;;;0.60;79.73
75942;BME280;64622;46.220;19.878;2023-02-28T00:13:46;101579.41;;;0.65;80.01
75942;BME280;64622;46.220;19.878;2023-02-28T00:16:18;101570.13;;;0.57;79.55
75942;BME280;64622;46.220;19.878;2023-02-28T00:18:46;101576.97;;;0.61;80.15
75942;BME280;64622;46.220;19.878;2023-02-28T00:21:17;101590.16;;;0.61;79.74
75942;BME280;64622;46.220;19.878;2023-02-28T00:23:44;101587.34;;;0.64;80.09
75942;BME280;64622;46.220;19.878;2023-02-28T00:26:11;101591.84;;;0.62;79.65
75942;BME280;64622;46.220;19.878;2023-02-28T00:28:39;101575.38;;;0.57;79.62
75942;BME280;64622;46.220;19.878;2023-02-28T00:31:05;101576.44;;;0.53;79.36
75942;BME280;64622;46.220;19.878;2023-02-28T00:33:32;101582.34;;;0.58;79.29
75942;BME280;64622;46.220;19.878;2023-02-28T00:36:07;101577.41;;;0.50;79.40
75942;BME280;64622;46.220;19.878;2023-02-28T00:38:36;101588.50;;;0.58;79.35
75942;BME280;64622;46.220;19.878;2023-02-28T00:41:03;101578.34;;;0.49;79.25
75942;BME280;64622;46.220;19.878;2023-02-28T00:43:35;101598.22;;;0.56;78.96
75942;BME280;64622;46.220;19.878;2023-02-28T00:46:02;101586.09;;;0.52;78.78
75942;BME280;64622;46.220;19.878;2023-02-28T00:48:30;101579.37;;;0.45;79.01
75942;BME280;64622;46.220;19.878;2023-02-28T00:50:57;101585.63;;;0.43;79.15
75942;BME280;64622;46.220;19.878;2023-02-28T00:53:25;101585.53;;;0.46;79.77
75942;BME280;64622;46.220;19.878;2023-02-28T00:55:51;101582.53;;;0.33;79.70
75942;BME280;64622;46.220;19.878;2023-02-28T00:58:18;101590.22;;;0.38;80.50
75942;BME280;64622;46.220;19.878;2023-02-28T01:00:45;101592.09;;;0.36;81.93
75942;BME280;64622;46.220;19.878;2023-02-28T01:03:17;101585.53;;;0.24;83.43
75942;BME280;64622;46.220;19.878;2023-02-28T01:05:44;101557.31;;;0.06;85.36
75942;BME280;64622;46.220;19.878;2023-02-28T01:08:11;101568.16;;;-0.01;86.95
75942;BME280;64622;46.220;19.878;2023-02-28T01:10:38;101556.50;;;-0.16;88.33
75942;BME280;64622;46.220;19.878;2023-02-28T01:13:05;101565.16;;;-0.14;90.77
75942;BME280;64622;46.220;19.878;2023-02-28T01:15:32;101555.91;;;-0.24;93.04
75942;BME280;64622;46.220;19.878;2023-02-28T01:17:59;101562.94;;;-0.46;95.21
75942;BME280;64622;46.220;19.878;2023-02-28T01:20:25;101557.41;;;-0.61;97.41
75942;BME280;64622;46.220;19.878;2023-02-28T01:22:52;101573.41;;;-0.67;100.00
75942;BME280;64622;46.220;19.878;2023-02-28T01:25:19;101564.09;;;-0.76;100.00
75942;BME280;64622;46.220;19.878;2023-02-28T01:27:45;101570.50;;;-0.82;100.00
75942;BME280;64622;46.220;19.878;2023-02-28T01:30:12;101569.00;;;-0.90;100.00
75942;BME280;64622;46.220;19.878;2023-02-28T01:32:39;101553.56;;;-0.99;100.00
75942;BME280;64622;46.220;19.878;2023-02-28T01:35:05;101569.00;;;-0.90;100.00
75942;BME280;64622;46.220;19.878;2023-02-28T01:37:32;101568.44;;;-0.98;100.00
75942;BME280;64622;46.220;19.878;2023-02-28T01:39:59;101559.00;;;-1.03;100.00
75942;BME280;64622;46.220;19.878;2023-02-28T01:42:26;101559.34;;;-1.12;100.00
75942;BME280;64622;46.220;19.878;2023-02-28T01:47:40;101556.94;;;-1.18;100.00
75942;BME280;64622;46.220;19.878;2023-02-28T01:50:21;101562.22;;;-1.20;100.00
75942;BME280;64622;46.220;19.878;2023-02-28T01:52:50;101554.75;;;-1.30;100.00
75942;BME280;64622;46.220;19.878;2023-02-28T01:55:20;101572.03;;;-1.25;100.00
75942;BME280;64622;46.220;19.878;2023-02-28T01:57:52;101563.47;;;-1.30;100.00
75942;BME280;64622;46.220;19.878;2023-02-28T02:00:23;101569.63;;;-1.31;100.00
75942;BME280;64622;46.220;19.878;2023-02-28T02:02:54;101566.28;;;-1.34;100.00
75942;BME280;64622;46.220;19.878;2023-02-28T02:05:27;101549.88;;;-1.41;100.00
75942;BME280;64622;46.220;19.878;2023-02-28T02:08:02;101547.25;;;-1.41;100.00
75942;BME280;64622;46.220;19.878;2023-02-28T02:10:35;101553.13;;;-1.34;100.00
75942;BME280;64622;46.220;19.878;2023-02-28T02:16:13;101550.34;;;-1.30;100.00
75942;BME280;64622;46.220;19.878;2023-02-28T02:18:51;101539.78;;;-1.28;100.00
75942;BME280;64622;46.220;19.878;2023-02-28T02:32:42;101538.22;;;-1.34;100.00
75942;BME280;64622;46.220;19.878;2023-02-28T02:38:18;101520.94;;;-1.39;100.00
75942;BME280;64622;46.220;19.878;2023-02-28T02:43:53;101531.31;;;-1.36;100.00
75942;BME280;64622;46.220;19.878;2023-02-28T02:46:39;101520.19;;;-1.42;100.00
75942;BME280;64622;46.220;19.878;2023-02-28T02:49:13;101527.91;;;-1.38;100.00
75942;BME280;64622;46.220;19.878;2023-02-28T02:51:42;101534.03;;;-1.37;100.00
75942;BME280;64622;46.220;19.878;2023-02-28T02:54:24;101527.91;;;-1.38;100.00
75942;BME280;64622;46.220;19.878;2023-02-28T02:57:00;101538.06;;;-1.29;100.00
75942;BME280;64622;46.220;19.878;2023-02-28T02:59:30;101533.94;;;-1.36;100.00
75942;BME280;64622;46.220;19.878;2023-02-28T03:02:04;101526.34;;;-1.44;100.00
75942;BME280;64622;46.220;19.878;2023-02-28T03:04:37;101526.16;;;-1.37;100.00
75942;BME280;64622;46.220;19.878;2023-02-28T03:07:06;101532.13;;;-1.34;100.00
75942;BME280;64622;46.220;19.878;2023-02-28T03:09:34;101519.28;;;-1.42;100.00
75942;BME280;64622;46.220;19.878;2023-02-28T03:12:02;101527.63;;;-1.31;100.00
75942;BME280;64622;46.220;19.878;2023-02-28T03:22:25;101520.88;;;-1.37;100.00
75942;BME280;64622;46.220;19.878;2023-02-28T03:25:07;101524.41;;;-1.39;100.00
75942;BME280;64622;46.220;19.878;2023-02-28T03:35:35;101534.06;;;-1.39;100.00
75942;BME280;64622;46.220;19.878;2023-02-28T03:38:16;101535.59;;;-1.34;100.00
75942;BME280;64622;46.220;19.878;2023-02-28T03:40:55;101530.84;;;-1.47;100.00
75942;BME280;64622;46.220;19.878;2023-02-28T03:43:31;101541.06;;;-1.40;100.00
75942;BME280;64622;46.220;19.878;2023-02-28T03:46:02;101540.94;;;-1.35;100.00
75942;BME280;64622;46.220;19.878;2023-02-28T03:48:40;101530.75;;;-1.44;100.00
75942;BME280;64622;46.220;19.878;2023-02-28T03:51:10;101528.81;;;-1.39;100.00
75942;BME280;64622;46.220;19.878;2023-02-28T03:56:54;101526.28;;;-1.42;100.00
75942;BME280;64622;46.220;19.878;2023-02-28T03:59:36;101534.84;;;-1.37;100.00
75942;BME280;64622;46.220;19.878;2023-02-28T04:02:07;101534.75;;;-1.34;100.00
75942;BME280;64622;46.220;19.878;2023-02-28T04:04:34;101523.44;;;-1.36;100.00
75942;BME280;64622;46.220;19.878;2023-02-28T04:07:07;101526.16;;;-1.37;100.00
75942;BME280;64622;46.220;19.878;2023-02-28T04:09:34;101528.63;;;-1.35;100.00
75942;BME280;64622;46.220;19.878;2023-02-28T04:12:01;101535.59;;;-1.34;100.00
75942;BME280;64622;46.220;19.878;2023-02-28T04:14:27;101520.12;;;-1.41;100.00
75942;BME280;64622;46.220;19.878;2023-02-28T04:16:54;101538.44;;;-1.40;100.00
75942;BME280;64622;46.220;19.878;2023-02-28T04:19:21;101529.50;;;-1.34;100.00
75942;BME280;64622;46.220;19.878;2023-02-28T04:21:49;101514.94;;;-1.42;100.00
75942;BME280;64622;46.220;19.878;2023-02-28T04:24:22;101532.88;;;-1.31;100.00
75942;BME280;64622;46.220;19.878;2023-02-28T04:26:51;101523.84;;;-1.47;100.00
75942;BME280;64622;46.220;19.878;2023-02-28T04:29:24;101524.56;;;-1.43;100.00
75942;BME280;64622;46.220;19.878;2023-02-28T04:31:51;101541.03;;;-1.38;100.00
75942;BME280;64622;46.220;19.878;2023-02-28T04:34:20;101534.38;;;-1.48;100.00
75942;BME280;64622;46.220;19.878;2023-02-28T04:36:47;101550.72;;;-1.40;100.00
75942;BME280;64622;46.220;19.878;2023-02-28T04:39:24;101532.63;;;-1.48;100.00
75942;BME280;64622;46.220;19.878;2023-02-28T04:41:51;101540.38;;;-1.45;100.00
75942;BME280;64622;46.220;19.878;2023-02-28T04:44:17;101542.84;;;-1.40;100.00
75942;BME280;64622;46.220;19.878;2023-02-28T04:46:44;101535.16;;;-1.46;100.00
75942;BME280;64622;46.220;19.878;2023-02-28T04:49:12;101542.69;;;-1.36;100.00
75942;BME280;64622;46.220;19.878;2023-02-28T04:51:41;101554.84;;;-1.33;100.00
75942;BME280;64622;46.220;19.878;2023-02-28T04:54:08;101549.00;;;-1.41;100.00
75942;BME280;64622;46.220;19.878;2023-02-28T04:56:35;101559.56;;;-1.42;100.00
75942;BME280;64622;46.220;19.878;2023-02-28T04:59:01;101551.00;;;-1.48;100.00
75942;BME280;64622;46.220;19.878;2023-02-28T05:01:31;101548.25;;;-1.45;100.00
75942;BME280;64622;46.220;19.878;2023-02-28T05:04:00;101542.22;;;-1.47;100.00
75942;BME280;64622;46.220;19.878;2023-02-28T05:06:29;101555.28;;;-1.45;100.00
75942;BME280;64622;46.220;19.878;2023-02-28T05:08:56;101558.25;;;-1.31;100.00
75942;BME280;64622;46.220;19.878;2023-02-28T05:11:26;101547.97;;;-1.37;100.00
75942;BME280;64622;46.220;19.878;2023-02-28T05:13:55;101554.75;;;-1.30;100.00
75942;BME280;64622;46.220;19.878;2023-02-28T05:16:22;101568.72;;;-1.30;100.00
75942;BME280;64622;46.220;19.878;2023-02-28T05:18:49;101557.44;;;-1.32;100.00
75942;BME280;64622;46.220;19.878;2023-02-28T05:21:36;101560.28;;;-1.37;100.00
75942;BME280;64622;46.220;19.878;2023-02-28T05:24:11;101568.78;;;-1.31;100.00
75942;BME280;64622;46.220;19.878;2023-02-28T05:26:40;101578.44;;;-1.32;100.00
75942;BME280;64622;46.220;19.878;2023-02-28T05:29:08;101575.91;;;-1.35;100.00
75942;BME280;64622;46.220;19.878;2023-02-28T05:31:36;101557.75;;;-1.41;100.00
75942;BME280;64622;46.220;19.878;2023-02-28T05:34:02;101567.28;;;-1.38;100.00
75942;BME280;64622;46.220;19.878;2023-02-28T05:36:31;101585.44;;;-1.32;100.00
75942;BME280;64622;46.220;19.878;2023-02-28T05:38:57;101580.31;;;-1.35;100.00
75942;BME280;64622;46.220;19.878;2023-02-28T05:41:24;101581.19;;;-1.36;100.00
75942;BME280;64622;46.220;19.878;2023-02-28T05:43:53;101585.41;;;-1.31;100.00
75942;BME280;64622;46.220;19.878;2023-02-28T05:46:19;101589.69;;;-1.28;100.00
75942;BME280;64622;46.220;19.878;2023-02-28T05:48:47;101577.78;;;-1.38;100.00
75942;BME280;64622;46.220;19.878;2023-02-28T05:51:15;101584.47;;;-1.30;100.00
75942;BME280;64622;46.220;19.878;2023-02-28T05:53:42;101587.22;;;-1.33;100.00
75942;BME280;64622;46.220;19.878;2023-02-28T05:56:09;101591.38;;;-1.27;100.00
75942;BME280;64622;46.220;19.878;2023-02-28T05:58:36;101593.19;;;-1.27;100.00
75942;BME280;64622;46.220;19.878;2023-02-28T06:03:49;101592.03;;;-1.21;100.00
75942;BME280;64622;46.220;19.878;2023-02-28T06:06:16;101599.19;;;-1.24;100.00
75942;BME280;64622;46.220;19.878;2023-02-28T06:08:42;101598.97;;;-1.18;100.00
75942;BME280;64622;46.220;19.878;2023-02-28T06:11:11;101586.84;;;-1.22;100.00
75942;BME280;64622;46.220;19.878;2023-02-28T06:13:38;101596.63;;;-1.27;100.00
75942;BME280;64622;46.220;19.878;2023-02-28T06:16:05;101593.22;;;-1.29;100.00
75942;BME280;64622;46.220;19.878;2023-02-28T06:18:32;101607.19;;;-1.29;100.00
75942;BME280;64622;46.220;19.878;2023-02-28T06:21:00;101607.38;;;-1.33;100.00
75942;BME280;64622;46.220;19.878;2023-02-28T06:23:27;101622.94;;;-1.29;100.00
75942;BME280;64622;46.220;19.878;2023-02-28T06:25:54;101615.69;;;-1.21;100.00
75942;BME280;64622;46.220;19.878;2023-02-28T06:28:25;101613.66;;;-1.12;100.00
75942;BME280;64622;46.220;19.878;2023-02-28T06:30:52;101616.34;;;-1.14;100.00
75942;BME280;64622;46.220;19.878;2023-02-28T06:33:19;101605.50;;;-1.05;100.00
75942;BME280;64622;46.220;19.878;2023-02-28T06:35:52;101613.56;;;-1.11;100.00
75942;BME280;64622;46.220;19.878;2023-02-28T06:38:20;101601.22;;;-1.08;100.00
75942;BME280;64622;46.220;19.878;2023-02-28T06:40:53;101595.31;;;-1.14;100.00
75942;BME280;64622;46.220;19.878;2023-02-28T06:43:22;101600.16;;;-1.04;100.00
75942;BME280;64622;46.220;19.878;2023-02-28T06:45:48;101617.28;;;-0.92;100.00
75942;BME280;64622;46.220;19.878;2023-02-28T06:48:15;101618.97;;;-0.91;100.00
75942;BME280;64622;46.220;19.878;2023-02-28T06:50:42;101604.09;;;-0.91;100.00
75942;BME280;64622;46.220;19.878;2023-02-28T06:53:08;101600.59;;;-0.91;100.00
75942;BME280;64622;46.220;19.878;2023-02-28T06:55:37;101621.97;;;-0.77;100.00
75942;BME280;64622;46.220;19.878;2023-02-28T06:58:04;101621.94;;;-0.76;100.00
75942;BME280;64622;46.220;19.878;2023-02-28T07:00:42;101623.78;;;-0.77;100.00
75942;BME280;64622;46.220;19.878;2023-02-28T07:03:10;101626.41;;;-0.77;100.00
75942;BME280;64622;46.220;19.878;2023-02-28T07:05:38;101627.09;;;-0.73;100.00
75942;BME280;64622;46.220;19.878;2023-02-28T07:08:06;101631.25;;;-0.67;100.00
75942;BME280;64622;46.220;19.878;2023-02-28T07:10:33;101618.09;;;-0.67;100.00
75942;BME280;64622;46.220;19.878;2023-02-28T07:13:00;101633.72;;;-0.62;100.00
75942;BME280;64622;46.220;19.878;2023-02-28T07:15:27;101622.63;;;-0.71;100.00
75942;BME280;64622;46.220;19.878;2023-02-28T07:17:54;101632.66;;;-0.59;100.00
75942;BME280;64622;46.220;19.878;2023-02-28T07:20:20;101634.63;;;-0.64;100.00
75942;BME280;64622;46.220;19.878;2023-02-28T07:22:47;101622.97;;;-0.57;100.00
75942;BME280;64622;46.220;19.878;2023-02-28T07:25:26;101629.47;;;-0.67;100.00
75942;BME280;64622;46.220;19.878;2023-02-28T07:27:54;101624.91;;;-0.62;100.00
75942;BME280;64622;46.220;19.878;2023-02-28T07:30:22;101640.34;;;-0.52;100.00
75942;BME280;64622;46.220;19.878;2023-02-28T07:32:48;101641.88;;;-0.47;100.00
75942;BME280;64622;46.220;19.878;2023-02-28T07:35:15;101637.88;;;-0.57;100.00
75942;BME280;64622;46.220;19.878;2023-02-28T07:37:42;101636.69;;;-0.49;100.00
75942;BME280;64622;46.220;19.878;2023-02-28T07:40:10;101623.25;;;-0.41;100.00
75942;BME280;64622;46.220;19.878;2023-02-28T07:42:41;101639.06;;;-0.20;100.00
75942;BME280;64622;46.220;19.878;2023-02-28T07:45:10;101630.97;;;-0.37;100.00
75942;BME280;64622;46.220;19.878;2023-02-28T07:47:38;101631.81;;;-0.36;100.00
75942;BME280;64622;46.220;19.878;2023-02-28T07:50:07;101641.75;;;-0.21;100.00
75942;BME280;64622;46.220;19.878;2023-02-28T07:52:36;101643.19;;;-0.13;100.00
75942;BME280;64622;46.220;19.878;2023-02-28T07:55:04;101642.12;;;-0.09;100.00
75942;BME280;64622;46.220;19.878;2023-02-28T07:57:31;101627.72;;;-0.20;100.00
75942;BME280;64622;46.220;19.878;2023-02-28T07:59:58;101643.13;;;-0.11;100.00
75942;BME280;64622;46.220;19.878;2023-02-28T08:02:25;101645.59;;;-0.07;100.00
75942;BME280;64622;46.220;19.878;2023-02-28T08:04:52;101636.78;;;-0.06;100.00
75942;BME280;64622;46.220;19.878;2023-02-28T08:07:19;101636.16;;;-0.12;100.00
75942;BME280;64622;46.220;19.878;2023-02-28T08:09:45;101629.81;;;-0.07;100.00
75942;BME280;64622;46.220;19.878;2023-02-28T08:12:12;101647.37;;;0.14;100.00
75942;BME280;64622;46.220;19.878;2023-02-28T08:14:40;101634.63;;;0.25;100.00
75942;BME280;64622;46.220;19.878;2023-02-28T08:17:07;101643.47;;;0.46;100.00
75942;BME280;64622;46.220;19.878;2023-02-28T08:19:34;101636.75;;;0.37;100.00
75942;BME280;64622;46.220;19.878;2023-02-28T08:22:00;101634.44;;;0.51;100.00
75942;BME280;64622;46.220;19.878;2023-02-28T08:24:27;101646.81;;;0.49;100.00
75942;BME280;64622;46.220;19.878;2023-02-28T08:26:55;101639.03;;;0.46;100.00
75942;BME280;64622;46.220;19.878;2023-02-28T08:29:21;101642.44;;;0.28;100.00
75942;BME280;64622;46.220;19.878;2023-02-28T08:31:48;101638.72;;;0.32;100.00
75942;BME280;64622;46.220;19.878;2023-02-28T08:34:15;101636.38;;;0.46;100.00
75942;BME280;64622;46.220;19.878;2023-02-28T08:36:43;101640.59;;;0.72;100.00
75942;BME280;64622;46.220;19.878;2023-02-28T08:39:11;101632.06;;;0.45;99.72
75942;BME280;64622;46.220;19.878;2023-02-28T08:41:37;101637.66;;;0.58;100.00
75942;BME280;64622;46.220;19.878;2023-02-28T08:44:04;101639.63;;;0.53;100.00
75942;BME280;64622;46.220;19.878;2023-02-28T08:46:31;101642.16;;;0.56;100.00
75942;BME280;64622;46.220;19.878;2023-02-28T08:48:57;101633.63;;;0.71;99.99
75942;BME280;64622;46.220;19.878;2023-02-28T08:51:26;101642.53;;;0.88;100.00
75942;BME280;64622;46.220;19.878;2023-02-28T08:54:00;101640.53;;;0.93;98.96
75942;BME280;64622;46.220;19.878;2023-02-28T08:56:27;101643.19;;;1.13;98.29
75942;BME280;64622;46.220;19.878;2023-02-28T08:58:56;101645.59;;;1.18;98.37
75942;BME280;64622;46.220;19.878;2023-02-28T09:01:25;101643.87;;;1.37;98.29
75942;BME280;64622;46.220;19.878;2023-02-28T09:03:55;101641.62;;;1.28;98.82
75942;BME280;64622;46.220;19.878;2023-02-28T09:06:23;101635.69;;;1.43;98.71
75942;BME280;64622;46.220;19.878;2023-02-28T09:08:51;101647.69;;;1.30;96.71
75942;BME280;64622;46.220;19.878;2023-02-28T09:11:19;101649.75;;;1.23;98.17
75942;BME280;64622;46.220;19.878;2023-02-28T09:13:46;101650.25;;;1.31;97.47
75942;BME280;64622;46.220;19.878;2023-02-28T09:16:14;101640.59;;;1.32;97.97
75942;BME280;64622;46.220;19.878;2023-02-28T09:18:42;101639.22;;;1.23;97.19
75942;BME280;64622;46.220;19.878;2023-02-28T09:21:11;101643.66;;;1.41;97.87
75942;BME280;64622;46.220;19.878;2023-02-28T09:23:44;101651.25;;;1.67;96.82
75942;BME280;64622;46.220;19.878;2023-02-28T09:26:17;101640.84;;;1.64;95.96
75942;BME280;64622;46.220;19.878;2023-02-28T09:28:44;101641.62;;;1.66;95.95
75942;BME280;64622;46.220;19.878;2023-02-28T09:31:23;101637.06;;;1.70;96.41
75942;BME280;64622;46.220;19.878;2023-02-28T09:33:52;101636.28;;;1.86;97.11
75942;BME280;64622;46.220;19.878;2023-02-28T09:36:20;101637.41;;;1.62;96.15
75942;BME280;64622;46.220;19.878;2023-02-28T09:38:47;101629.00;;;1.54;96.19
75942;BME280;64622;46.220;19.878;2023-02-28T09:41:19;101635.84;;;1.58;96.85
75942;BME280;64622;46.220;19.878;2023-02-28T09:43:58;101634.84;;;1.61;97.39
75942;BME280;64622;46.220;19.878;2023-02-28T09:46:47;101630.28;;;1.64;96.12
75942;BME280;64622;46.220;19.878;2023-02-28T09:49:48;101638.69;;;1.72;96.60
75942;BME280;64622;46.220;19.878;2023-02-28T09:52:33;101628.12;;;1.54;97.17
75942;BME280;64622;46.220;19.878;2023-02-28T09:55:22;101624.69;;;1.33;97.32
75942;BME280;64622;46.220;19.878;2023-02-28T09:57:52;101626.84;;;1.44;97.99
75942;BME280;64622;46.220;19.878;2023-02-28T10:00:24;101630.06;;;1.50;98.39
75942;BME280;64622;46.220;19.878;2023-02-28T10:03:27;101637.56;;;1.78;98.18
75942;BME280;64622;46.220;19.878;2023-02-28T10:11:16;101635.84;;;1.58;98.33
75942;BME280;64622;46.220;19.878;2023-02-28T10:14:02;101642.63;;;1.64;98.68
75942;BME280;64622;46.220;19.878;2023-02-28T10:16:46;101645.31;;;1.62;98.67
75942;BME280;64622;46.220;19.878;2023-02-28T10:19:38;101639.63;;;1.53;99.02
75942;BME280;64622;46.220;19.878;2023-02-28T10:22:19;101635.03;;;1.38;98.89
75942;BME280;64622;46.220;19.878;2023-02-28T10:24:50;101647.41;;;1.56;99.76
75942;BME280;64622;46.220;19.878;2023-02-28T10:27:28;101643.53;;;1.63;99.43
75942;BME280;64622;46.220;19.878;2023-02-28T10:29:57;101648.25;;;1.75;99.44
75942;BME280;64622;46.220;19.878;2023-02-28T10:32:28;101648.53;;;1.87;98.37
75942;BME280;64622;46.220;19.878;2023-02-28T10:35:02;101649.19;;;1.74;98.95
75942;BME280;64622;46.220;19.878;2023-02-28T10:37:33;101645.78;;;1.72;99.43
75942;BME280;64622;46.220;19.878;2023-02-28T10:40:06;101638.56;;;1.75;99.88
75942;BME280;64622;46.220;19.878;2023-02-28T10:42:32;101641.91;;;1.79;100.00
75942;BME280;64622;46.220;19.878;2023-02-28T10:53:10;101632.81;;;1.86;100.00
75942;BME280;64622;46.220;19.878;2023-02-28T10:55:41;101628.66;;;1.80;100.00
75942;BME280;64622;46.220;19.878;2023-02-28T10:58:47;101619.22;;;1.75;100.00
75942;BME280;64622;46.220;19.878;2023-02-28T11:01:36;101629.34;;;1.65;100.00
75942;BME280;64622;46.220;19.878;2023-02-28T11:04:32;101617.94;;;1.65;100.00
75942;BME280;64622;46.220;19.878;2023-02-28T11:09:34;101613.41;;;1.68;100.00
75942;BME280;64622;46.220;19.878;2023-02-28T11:12:20;101621.09;;;1.73;100.00
75942;BME280;64622;46.220;19.878;2023-02-28T11:14:54;101623.59;;;1.76;100.00
75942;BME280;64622;46.220;19.878;2023-02-28T11:17:32;101614.16;;;1.70;100.00
75942;BME280;64622;46.220;19.878;2023-02-28T11:20:03;101620.97;;;1.76;100.00
75942;BME280;64622;46.220;19.878;2023-02-28T11:22:37;101615.22;;;1.66;100.00
75942;BME280;64622;46.220;19.878;2023-02-28T11:25:13;101611.12;;;1.61;100.00
75942;BME280;64622;46.220;19.878;2023-02-28T11:30:40;101609.72;;;1.52;100.00
75942;BME280;64622;46.220;19.878;2023-02-28T11:33:21;101611.25;;;1.58;100.00
75942;BME280;64622;46.220;19.878;2023-02-28T11:35:50;101601.19;;;1.66;100.00
75942;BME280;64622;46.220;19.878;2023-02-28T11:38:17;101606.59;;;1.63;100.00
75942;BME280;64622;46.220;19.878;2023-02-28T11:46:32;101608.88;;;1.89;100.00
75942;BME280;64622;46.220;19.878;2023-02-28T12:03:31;101604.53;;;1.69;100.00
75942;BME280;64622;46.220;19.878;2023-02-28T12:27:49;101584.16;;;1.73;100.00
75942;BME280;64622;46.220;19.878;2023-02-28T12:30:25;101579.56;;;1.76;100.00
75942;BME280;64622;46.220;19.878;2023-02-28T12:33:18;101577.94;;;1.74;100.00
75942;BME280;64622;46.220;19.878;2023-02-28T12:35:51;101572.72;;;1.72;100.00
75942;BME280;64622;46.220;19.878;2023-02-28T12:38:27;101577.81;;;1.77;100.00
75942;BME280;64622;46.220;19.878;2023-02-28T12:41:03;101589.69;;;1.85;100.00
75942;BME280;64622;46.220;19.878;2023-02-28T12:43:46;101572.16;;;1.84;100.00
75942;BME280;64622;46.220;19.878;2023-02-28T12:46:24;101588.63;;;1.89;100.00
75942;BME280;64622;46.220;19.878;2023-02-28T12:48:56;101577.28;;;1.87;100.00
75942;BME280;64622;46.220;19.878;2023-02-28T12:51:26;101588.19;;;1.80;100.00
75942;BME280;64622;46.220;19.878;2023-02-28T12:57:15;101583.78;;;1.80;100.00
75942;BME280;64622;46.220;19.878;2023-02-28T12:59:53;101577.62;;;1.80;100.00
75942;BME280;64622;46.220;19.878;2023-02-28T13:02:43;101570.94;;;1.73;100.00
75942;BME280;64622;46.220;19.878;2023-02-28T13:11:32;101578.53;;;1.97;100.00
75942;BME280;64622;46.220;19.878;2023-02-28T13:14:02;101583.34;;;1.89;100.00
75942;BME280;64622;46.220;19.878;2023-02-28T13:16:50;101573.78;;;1.87;100.00
75942;BME280;64622;46.220;19.878;2023-02-28T13:19:19;101571.28;;;1.84;100.00
75942;BME280;64622;46.220;19.878;2023-02-28T13:21:48;101569.34;;;1.87;100.00
75942;BME280;64622;46.220;19.878;2023-02-28T13:29:34;101567.88;;;1.82;100.00
75942;BME280;64622;46.220;19.878;2023-02-28T13:34:28;101563.53;;;1.81;100.00
75942;BME280;64622;46.220;19.878;2023-02-28T13:39:54;101575.25;;;1.92;100.00
75942;BME280;64622;46.220;19.878;2023-02-28T13:47:40;101570.78;;;1.94;100.00
75942;BME280;64622;46.220;19.878;2023-02-28T13:50:40;101565.56;;;1.93;100.00
75942;BME280;64622;46.220;19.878;2023-02-28T14:01:15;101563.00;;;1.91;100.00
75942;BME280;64622;46.220;19.878;2023-02-28T14:03:58;101565.50;;;1.94;100.00
75942;BME280;64622;46.220;19.878;2023-02-28T14:06:31;101564.50;;;1.97;100.00
75942;BME280;64622;46.220;19.878;2023-02-28T14:11:39;101564.72;;;1.92;100.00
75942;BME280;64622;46.220;19.878;2023-02-28T14:14:09;101560.66;;;1.85;100.00
75942;BME280;64622;46.220;19.878;2023-02-28T14:16:57;101563.94;;;1.90;100.00
75942;BME280;64622;46.220;19.878;2023-02-28T14:19:29;101550.25;;;1.82;100.00
75942;BME280;64622;46.220;19.878;2023-02-28T14:32:49;101539.88;;;1.61;100.00
75942;BME280;64622;46.220;19.878;2023-02-28T14:35:36;101549.63;;;1.59;100.00
75942;BME280;64622;46.220;19.878;2023-02-28T14:38:14;101549.56;;;1.60;100.00
75942;BME280;64622;46.220;19.878;2023-02-28T14:40:45;101545.22;;;1.59;100.00
75942;BME280;64622;46.220;19.878;2023-02-28T14:43:47;101532.78;;;1.61;100.00
75942;BME280;64622;46.220;19.878;2023-02-28T14:46:14;101546.25;;;1.74;100.00
75942;BME280;64622;46.220;19.878;2023-02-28T14:48:47;101543.56;;;1.75;100.00
75942;BME280;64622;46.220;19.878;2023-02-28T14:51:19;101545.31;;;1.75;100.00
75942;BME280;64622;46.220;19.878;2023-02-28T14:53:50;101537.94;;;1.64;100.00
75942;BME280;64622;46.220;19.878;2023-02-28T14:56:21;101529.09;;;1.65;100.00
75942;BME280;64622;46.220;19.878;2023-02-28T14:58:54;101539.34;;;1.71;100.00
75942;BME280;64622;46.220;19.878;2023-02-28T15:01:23;101533.31;;;1.69;100.00
75942;BME280;64622;46.220;19.878;2023-02-28T15:03:57;101545.31;;;1.75;100.00
75942;BME280;64622;46.220;19.878;2023-02-28T15:06:25;101538.22;;;1.77;100.00
75942;BME280;64622;46.220;19.878;2023-02-28T15:09:26;101530.66;;;1.69;100.00
75942;BME280;64622;46.220;19.878;2023-02-28T15:11:54;101540.06;;;1.75;100.00
75942;BME280;64622;46.220;19.878;2023-02-28T15:14:21;101535.06;;;1.69;100.00
75942;BME280;64622;46.220;19.878;2023-02-28T15:16:52;101541.56;;;1.80;100.00
75942;BME280;64622;46.220;19.878;2023-02-28T15:19:31;101545.97;;;1.80;100.00
75942;BME280;64622;46.220;19.878;2023-02-28T15:22:16;101550.25;;;1.82;100.00
75942;BME280;64622;46.220;19.878;2023-02-28T15:24:48;101543.56;;;1.75;100.00
75942;BME280;64622;46.220;19.878;2023-02-28T15:27:28;101538.34;;;1.74;100.00
75942;BME280;64622;46.220;19.878;2023-02-28T15:30:00;101550.53;;;1.76;100.00
75942;BME280;64622;46.220;19.878;2023-02-28T15:32:34;101547.06;;;1.76;100.00